Impacts METAR Board INFO
IDs:

KORD - Chicago/O'Hare Intl, IL, US

Updated at: 1918 UTC 16 Jan 2018
Potential Impact None Slight Moderate High
Time16/07Z 16/08Z 16/09Z 16/10Z 16/11Z 16/12Z 16/13Z 16/14Z 16/15Z 16/16Z 16/17Z 16/18Z 16/19Z
VIS1.75 2.5 9 9 9 6 3 7 7 8 6 9 10
CIG20 16 12 11 24 60 34 60 70 -- 150 40 --
CoverOVCOVCOVCOVCOVCOVCBKNOVCBKNSCTBKNBKNSCT
FltCatIFRIFRMVFRMVFRMVFRVFRMVFRVFRVFRVFRVFRVFRVFR
WX-SN-SN-SN---SN-SN BR-SN-SN-----SN----
WDir270270280250280290300300310320320320320
WSpd10 8 9 7 10 12 11 11 12 13 13 12 11
WGst-- -- -- -- -- -- -- -- -- -- -- -- --
Raw hourly METARs
KORD 160651Z 27010KT 1 3/4SM -SN OVC020 M12/M15 A3032 RMK AO2 SLP280 P0000 T11221150 $
KORD 160751Z 27008KT 2 1/2SM -SN BKN016 OVC022 M13/M16 A3033 RMK AO2 SLP285 P0001 T11281156 $
KORD 160851Z 28009KT 9SM -SN OVC012 M12/M16 A3034 RMK AO2 SLP289 P0000 60001 T11221156 53008 $
KORD 160951Z 25007KT 9SM BKN011 OVC045 M12/M16 A3036 RMK AO2 SNE47 SLP293 P0000 T11221156 $
KORD 161051Z 28010KT 9SM -SN SCT019 BKN024 OVC036 M12/M14 A3036 RMK AO2 SNB28 SLP295 P0000 T11171144 $
KORD 161151Z 29012KT 6SM -SN BR FEW016 BKN060 OVC100 M11/M13 A3038 RMK AO2 SLP301 4/003 P0000 60001 70007 T11061128 11106 21128 53011 $
KORD 161251Z 30011KT 3SM -SN FEW016 BKN034 BKN060 M10/M13 A3039 RMK AO2 SLP306 P0000 T11001128 $
KORD 161351Z 30011KT 7SM -SN FEW045 BKN060 OVC100 M09/M12 A3041 RMK AO2 SLP310 P0000 T10891117
KORD 161451Z 31012KT 7SM FEW025 SCT034 BKN070 BKN150 M08/M11 A3043 RMK AO2 SNE10 SLP318 P0000 60000 T10831111 53017
KORD 161551Z 32013KT 8SM FEW020 FEW034 SCT070 SCT150 M07/M11 A3044 RMK AO2 SLP321 T10721106
KORD 161651Z 32013KT 6SM -SN SCT017 SCT045 BKN150 M06/M10 A3045 RMK AO2 SLP326 SNB34 P0000 T10611100
KORD 161758Z 32012KT 9SM FEW030 BKN040 BKN050 M06/M10 A3044 RMK AO2 SNE57 P0000 T10561100
KORD 161851Z 32011KT 10SM SCT045 SCT050 M04/M11 A3043 RMK AO2 SNE1757 SLP318 P0000 T10441111